Time;durP1;ratioP1;P1;durP2;ratioP2;P2;SDS_P1;SDS_P2;PMS_P1;PMS_P2;Temp;Humidity;BMP_temperature;BMP_pressure;BME280_temperature;BME280_humidity;BME280_pressure;Samples;Min_cycle;Max_cycle;Signal;HPM_P1;HPM_P2
2022/03/15 00:00:14;;;;;;;9.02;4.40;;;;;;;6.56;77.15;102892.97;5021414;28;20033;-58
2022/03/15 00:02:40;;;;;;;9.07;4.10;;;;;;;6.55;77.08;102897.34;5025962;28;20384;-54
2022/03/15 00:05:05;;;;;;;8.10;3.75;;;;;;;6.53;77.00;102891.19;5019716;28;20051;-54
2022/03/15 00:07:31;;;;;;;9.65;3.88;;;;;;;6.52;77.19;102886.81;5020862;28;20555;-53
2022/03/15 00:09:56;;;;;;;9.68;3.78;;;;;;;6.50;77.22;102888.53;5012238;28;20049;-57
2022/03/15 00:12:21;;;;;;;14.68;4.40;;;;;;;6.46;77.42;102889.34;5008716;28;20022;-53
2022/03/15 00:14:47;;;;;;;10.93;4.03;;;;;;;6.47;77.38;102878.00;5008174;28;20084;-56
2022/03/15 00:17:13;;;;;;;9.95;4.07;;;;;;;6.48;77.37;102873.66;5007401;28;20558;-56
2022/03/15 00:19:39;;;;;;;12.85;4.20;;;;;;;6.50;77.27;102872.81;5023051;28;20057;-56
2022/03/15 00:22:04;;;;;;;8.73;4.45;;;;;;;6.48;77.43;102871.94;5024506;28;20033;-52
2022/03/15 00:24:30;;;;;;;10.05;3.30;;;;;;;6.42;77.47;102870.06;5020079;28;20029;-57
2022/03/15 00:26:55;;;;;;;11.05;4.80;;;;;;;6.35;78.09;102869.97;5008101;28;20461;-56
2022/03/15 00:29:23;;;;;;;10.25;4.80;;;;;;;6.29;78.12;102868.13;5008733;28;20026;-55
2022/03/15 00:31:48;;;;;;;13.27;4.13;;;;;;;6.25;78.42;102872.41;5009436;28;20025;-53
2022/03/15 00:34:14;;;;;;;12.65;4.18;;;;;;;6.21;78.53;102874.94;5008088;28;20091;-56
2022/03/15 00:36:39;;;;;;;10.02;3.78;;;;;;;6.14;78.85;102873.97;5009241;28;20026;-52
2022/03/15 00:39:05;;;;;;;9.50;3.55;;;;;;;6.12;79.04;102875.69;5009119;28;20524;-53
2022/03/15 00:41:31;;;;;;;12.05;4.32;;;;;;;6.11;79.26;102871.31;5000326;28;20034;-57
2022/03/15 00:43:56;;;;;;;11.32;3.78;;;;;;;6.10;79.31;102874.75;5046615;28;20028;-57
2022/03/15 00:46:21;;;;;;;9.98;3.67;;;;;;;6.09;79.42;102870.38;5018162;28;20106;-55
2022/03/15 00:48:47;;;;;;;9.27;3.83;;;;;;;6.11;79.22;102869.53;5006901;28;20018;-56
2022/03/15 00:51:12;;;;;;;10.75;4.30;;;;;;;6.11;79.30;102864.31;5008474;28;20033;-55
2022/03/15 00:53:37;;;;;;;8.80;3.63;;;;;;;6.12;79.71;102862.59;5008799;28;20060;-57
2022/03/15 00:56:04;;;;;;;9.10;3.35;;;;;;;6.13;79.25;102859.09;5017898;28;20029;-55
2022/03/15 00:58:29;;;;;;;12.13;3.97;;;;;;;6.16;79.16;102856.53;5020383;28;20498;-51
2022/03/15 01:00:55;;;;;;;13.23;3.63;;;;;;;6.19;79.11;102848.75;5007750;28;20025;-56
2022/03/15 01:03:20;;;;;;;12.05;4.07;;;;;;;6.24;79.04;102852.34;5026269;28;20034;-56
2022/03/15 01:05:45;;;;;;;8.73;4.20;;;;;;;6.27;79.20;102852.38;5025317;28;20499;-58
2022/03/15 01:08:11;;;;;;;15.23;4.28;;;;;;;6.27;79.19;102855.00;5015763;28;20022;-55
2022/03/15 01:10:36;;;;;;;10.02;4.15;;;;;;;6.29;79.18;102853.28;5008580;28;20032;-59
2022/03/15 01:13:02;;;;;;;17.08;4.38;;;;;;;6.27;79.09;102852.38;5008339;28;20038;-56
2022/03/15 01:15:35;;;;;;;13.15;4.55;;;;;;;6.26;79.43;102849.75;5007962;28;20025;-56
2022/03/15 01:18:00;;;;;;;13.07;4.53;;;;;;;6.24;79.56;102847.09;5020236;28;20384;-54
2022/03/15 01:20:26;;;;;;;10.65;4.38;;;;;;;6.27;79.55;102841.91;5019608;28;21252;-56
2022/03/15 01:22:51;;;;;;;10.38;3.83;;;;;;;6.23;79.64;102839.22;5025788;28;20084;-60
2022/03/15 01:25:16;;;;;;;11.52;4.13;;;;;;;6.21;79.85;102839.19;5027553;28;20127;-55
2022/03/15 01:27:42;;;;;;;9.43;4.15;;;;;;;6.22;79.90;102838.31;5024973;28;20025;-57
2022/03/15 01:30:07;;;;;;;12.60;4.72;;;;;;;6.26;80.00;102826.19;5017410;28;20105;-58
2022/03/15 01:32:32;;;;;;;11.35;4.13;;;;;;;6.28;79.83;102820.09;5007912;28;20033;-54
2022/03/15 01:34:58;;;;;;;12.00;4.95;;;;;;;6.27;80.00;102822.69;5008331;28;20044;-56
2022/03/15 01:37:23;;;;;;;12.27;4.60;;;;;;;6.31;80.02;102817.53;5008139;28;20085;-56
2022/03/15 01:39:49;;;;;;;10.48;4.70;;;;;;;6.37;79.83;102823.72;5010585;28;20021;-52
2022/03/15 01:42:14;;;;;;;14.63;5.97;;;;;;;6.46;79.86;102818.63;5018204;28;20772;-58
2022/03/15 01:44:45;;;;;;;20.25;6.03;;;;;;;6.41;80.09;102820.31;5035117;28;20032;-57
2022/03/15 01:47:11;;;;;;;15.55;6.00;;;;;;;6.39;80.27;102806.31;5026671;28;20036;-56
2022/03/15 01:49:36;;;;;;;19.17;6.72;;;;;;;6.38;80.35;102799.31;5022762;28;20038;-57
2022/03/15 01:52:02;;;;;;;17.33;5.90;;;;;;;6.35;80.61;102814.97;5026872;28;20036;-56
2022/03/15 01:54:27;;;;;;;18.60;5.82;;;;;;;6.36;80.71;102815.00;5027246;28;20115;-53
2022/03/15 01:56:52;;;;;;;19.08;7.13;;;;;;;6.42;80.71;102816.81;5020770;28;20091;-57
2022/03/15 01:59:18;;;;;;;16.42;7.20;;;;;;;6.52;80.58;102813.50;5025577;28;20053;-56
2022/03/15 02:01:44;;;;;;;24.45;8.75;;;;;;;6.59;80.48;102813.59;5025130;28;20029;-56
2022/03/15 02:04:10;;;;;;;23.85;10.57;;;;;;;6.62;80.64;102808.41;5026187;28;20028;-56
2022/03/15 02:06:38;;;;;;;19.17;8.50;;;;;;;6.63;80.73;102808.41;5026213;28;20029;-56
2022/03/15 02:09:07;;;;;;;22.38;9.27;;;;;;;6.64;80.75;102806.66;5026937;28;20124;-57
2022/03/15 02:11:35;;;;;;;26.13;10.13;;;;;;;6.66;80.79;102804.94;5027169;28;20029;-54
2022/03/15 02:14:01;;;;;;;24.52;10.55;;;;;;;6.64;80.82;102802.31;5034417;22;20081;-56
2022/03/15 02:16:26;;;;;;;29.73;11.43;;;;;;;6.69;80.73;102798.00;5026087;28;20068;-52
2022/03/15 02:18:51;;;;;;;30.33;12.35;;;;;;;6.76;81.08;102795.47;5026723;28;20048;-57
2022/03/15 02:21:17;;;;;;;29.73;11.43;;;;;;;6.78;81.03;102793.75;5029513;28;20029;-54
2022/03/15 02:23:42;;;;;;;26.23;11.73;;;;;;;6.78;81.03;102789.41;5028571;28;20040;-56
2022/03/15 02:26:07;;;;;;;24.58;10.70;;;;;;;6.77;81.01;102786.78;5029497;28;20036;-58
2022/03/15 02:28:33;;;;;;;29.80;12.57;;;;;;;6.80;81.02;102787.69;5030465;28;20034;-58
2022/03/15 02:30:58;;;;;;;30.48;11.85;;;;;;;6.85;81.10;102785.13;5029686;28;20033;-55
2022/03/15 02:33:23;;;;;;;29.30;11.52;;;;;;;6.85;80.95;102774.63;5029893;28;20041;-55
2022/03/15 02:35:48;;;;;;;28.88;12.05;;;;;;;6.83;81.05;102779.84;5048297;28;20025;-58
2022/03/15 02:38:14;;;;;;;30.23;13.73;;;;;;;6.79;81.01;102770.19;5048300;28;20025;-53
2022/03/15 02:40:40;;;;;;;27.83;12.68;;;;;;;6.77;81.17;102771.06;5045993;28;20021;-55
2022/03/15 02:43:05;;;;;;;29.02;12.25;;;;;;;6.75;81.40;102773.66;5035327;28;20022;-57
2022/03/15 02:45:30;;;;;;;34.80;11.77;;;;;;;6.74;81.44;102761.38;5027915;28;20522;-55
2022/03/15 02:47:56;;;;;;;30.08;12.13;;;;;;;6.79;81.52;102758.81;5027856;28;20025;-56
2022/03/15 02:50:22;;;;;;;30.25;13.38;;;;;;;6.79;81.56;102762.34;5028555;28;20390;-56
2022/03/15 02:52:48;;;;;;;29.85;14.18;;;;;;;6.80;81.82;102758.84;5029269;28;20029;-56
2022/03/15 02:55:16;;;;;;;23.73;12.77;;;;;;;6.81;81.79;102752.75;5048672;28;20036;-57
2022/03/15 02:57:44;;;;;;;35.97;16.73;;;;;;;6.85;81.68;102750.16;5047217;28;20035;-58
2022/03/15 03:00:10;;;;;;;31.38;14.43;;;;;;;6.85;81.67;102750.16;5046498;28;20104;-57
2022/03/15 03:02:36;;;;;;;24.67;13.02;;;;;;;6.86;81.63;102755.41;5045254;28;20461;-55
2022/03/15 03:05:01;;;;;;;40.15;15.27;;;;;;;6.88;81.87;102760.69;5048251;28;20491;-55
2022/03/15 03:07:27;;;;;;;33.95;14.18;;;;;;;6.88;81.94;102766.81;5029000;28;20040;-54
2022/03/15 03:09:52;;;;;;;31.58;16.02;;;;;;;6.90;81.76;102762.50;5046984;28;20382;-56
2022/03/15 03:12:18;;;;;;;41.00;17.15;;;;;;;6.91;81.87;102763.34;5044385;28;20032;-55
2022/03/15 03:14:47;;;;;;;34.03;16.08;;;;;;;6.89;82.09;102759.84;5045771;28;20509;-57
2022/03/15 03:17:12;;;;;;;34.67;16.65;;;;;;;6.90;81.97;102753.72;5046316;28;20048;-55
2022/03/15 03:19:38;;;;;;;35.75;17.58;;;;;;;6.88;82.00;102752.81;5027034;28;20017;-56
2022/03/15 03:22:05;;;;;;;34.20;15.32;;;;;;;6.88;82.13;102760.69;5045018;28;20459;-56
2022/03/15 03:24:30;;;;;;;41.33;14.88;;;;;;;6.88;82.08;102752.81;5045006;28;20021;-56
2022/03/15 03:26:56;;;;;;;36.67;16.63;;;;;;;6.88;82.12;102752.81;5044264;28;20496;-59
2022/03/15 03:29:21;;;;;;;34.70;14.77;;;;;;;6.86;82.05;102754.56;5045878;28;20025;-56
2022/03/15 03:31:47;;;;;;;37.85;16.33;;;;;;;6.86;82.10;102749.31;5045908;28;20071;-56
2022/03/15 03:34:12;;;;;;;40.78;18.30;;;;;;;6.89;81.96;102754.59;5045130;28;20408;-56
2022/03/15 03:36:38;;;;;;;35.05;16.13;;;;;;;6.86;81.92;102755.41;5045401;28;20066;-56
2022/03/15 03:39:07;;;;;;;30.88;15.10;;;;;;;6.86;81.99;102744.09;5046023;28;20029;-55
2022/03/15 03:41:32;;;;;;;33.47;16.20;;;;;;;6.86;82.10;102747.56;5044887;28;20474;-56
2022/03/15 03:43:58;;;;;;;39.17;17.48;;;;;;;6.83;82.04;102740.56;5045160;28;20043;-53
2022/03/15 03:46:23;;;;;;;30.77;15.20;;;;;;;6.88;82.14;102743.22;5043475;28;20021;-55
2022/03/15 03:48:50;;;;;;;35.42;17.90;;;;;;;6.87;81.76;102745.84;5044637;28;20100;-54
2022/03/15 03:51:16;;;;;;;36.70;18.15;;;;;;;6.82;81.96;102746.66;5045020;28;20527;-56
2022/03/15 03:53:42;;;;;;;43.92;16.88;;;;;;;6.79;82.09;102740.50;5043821;28;20033;-55
2022/03/15 03:56:07;;;;;;;35.00;15.45;;;;;;;6.84;81.83;102744.06;5044876;28;20074;-61
2022/03/15 03:58:34;;;;;;;35.05;16.23;;;;;;;6.86;81.79;102741.47;5044234;28;20111;-56
2022/03/15 04:01:00;;;;;;;32.85;15.57;;;;;;;6.77;81.97;102740.47;5045698;28;20025;-56
2022/03/15 04:03:28;;;;;;;36.47;16.50;;;;;;;6.77;81.74;102742.22;5027044;28;20016;-56
2022/03/15 04:05:54;;;;;;;35.10;16.52;;;;;;;6.69;82.15;102747.38;5028225;28;20033;-56
2022/03/15 04:08:19;;;;;;;30.90;15.68;;;;;;;6.65;82.43;102740.31;5044904;28;20032;-58
2022/03/15 04:10:46;;;;;;;37.03;16.60;;;;;;;6.63;82.54;102739.41;5044997;28;20075;-56
2022/03/15 04:13:12;;;;;;;35.28;15.43;;;;;;;6.62;82.62;102745.53;5044011;28;20048;-55
2022/03/15 04:15:37;;;;;;;37.35;17.17;;;;;;;6.59;82.79;102741.09;5045358;28;20110;-54
2022/03/15 04:18:03;;;;;;;35.67;17.20;;;;;;;6.57;82.94;102734.97;5044037;28;20072;-53
2022/03/15 04:20:29;;;;;;;35.58;16.67;;;;;;;6.56;83.04;102741.94;5044964;28;20456;-54
2022/03/15 04:22:54;;;;;;;27.48;15.38;;;;;;;6.57;83.12;102740.22;5044014;28;20025;-55
2022/03/15 04:25:19;;;;;;;34.85;17.13;;;;;;;6.57;83.22;102743.69;5048369;28;20028;-54
2022/03/15 04:27:45;;;;;;;34.22;16.65;;;;;;;6.57;83.19;102735.84;5049113;28;20032;-55
2022/03/15 04:30:10;;;;;;;30.90;17.33;;;;;;;6.60;83.40;102734.13;5047892;28;20475;-56
2022/03/15 04:32:36;;;;;;;36.05;18.30;;;;;;;6.63;83.30;102731.56;5046418;28;20111;-56
2022/03/15 04:35:02;;;;;;;30.52;16.08;;;;;;;6.63;83.23;102732.44;5049088;28;20021;-55
2022/03/15 04:37:27;;;;;;;28.63;13.90;;;;;;;6.66;83.00;102737.72;5047344;28;20033;-55
2022/03/15 04:39:53;;;;;;;30.80;14.65;;;;;;;6.66;82.83;102731.59;5047866;28;20037;-56
2022/03/15 04:42:18;;;;;;;39.20;16.23;;;;;;;6.67;82.61;102736.88;5047029;28;20032;-57
2022/03/15 04:44:43;;;;;;;34.88;16.05;;;;;;;6.68;82.64;102724.63;5048419;28;20024;-53
2022/03/15 04:47:09;;;;;;;27.10;14.82;;;;;;;6.71;82.42;102732.53;5046861;28;20035;-52
2022/03/15 04:49:34;;;;;;;33.28;15.90;;;;;;;6.80;82.17;102727.41;5048917;28;20025;-55
2022/03/15 04:52:02;;;;;;;36.08;16.48;;;;;;;6.85;82.02;102734.44;5017040;28;20093;-56
2022/03/15 04:54:28;;;;;;;33.33;15.52;;;;;;;6.86;81.76;102730.97;5038917;28;20474;-58
2022/03/15 04:56:53;;;;;;;25.63;14.68;;;;;;;6.87;81.51;102724.88;5048665;28;20024;-55
2022/03/15 04:59:19;;;;;;;30.75;14.07;;;;;;;6.87;81.44;102722.25;5028888;28;20419;-56
2022/03/15 05:01:44;;;;;;;28.73;15.07;;;;;;;6.90;81.23;102719.66;5029271;28;20042;-53
2022/03/15 05:04:09;;;;;;;32.22;14.77;;;;;;;6.86;81.50;102712.63;5045972;28;20025;-58
2022/03/15 05:06:38;;;;;;;31.92;14.50;;;;;;;6.83;81.76;102714.34;5047703;28;20017;-56
2022/03/15 05:09:03;;;;;;;38.03;17.02;;;;;;;6.81;81.96;102710.81;5047325;28;20027;-56
2022/03/15 05:11:29;;;;;;;32.67;14.60;;;;;;;6.78;82.00;102702.06;5048100;28;20021;-54
2022/03/15 05:13:54;;;;;;;32.85;15.32;;;;;;;6.77;82.04;102698.53;5029684;28;20384;-56
2022/03/15 05:16:22;;;;;;;29.35;14.27;;;;;;;6.78;82.10;102692.47;5035931;28;20132;-55
2022/03/15 05:18:56;;;;;;;31.00;17.17;;;;;;;6.76;82.26;102696.78;5027609;28;20116;-54
2022/03/15 05:21:25;;;;;;;27.10;14.38;;;;;;;6.74;82.50;102688.03;5028358;28;20108;-56
2022/03/15 05:23:51;;;;;;;32.50;15.20;;;;;;;6.77;82.29;102688.06;5027869;28;20029;-53
2022/03/15 05:26:17;;;;;;;36.58;18.60;;;;;;;6.75;82.64;102694.16;5027914;28;20018;-55
2022/03/15 05:28:43;;;;;;;38.58;16.85;;;;;;;6.75;82.65;102688.91;5027584;28;20033;-54
2022/03/15 05:31:09;;;;;;;35.78;18.65;;;;;;;6.74;82.74;102682.78;5027664;28;20037;-55
2022/03/15 05:33:34;;;;;;;39.13;18.73;;;;;;;6.75;82.79;102684.56;5027084;28;20032;-58
2022/03/15 05:36:00;;;;;;;33.72;19.02;;;;;;;6.75;82.70;102686.28;5027063;28;20049;-55
2022/03/15 05:38:25;;;;;;;40.17;18.20;;;;;;;6.74;82.65;102688.03;5009097;28;20077;-58
2022/03/15 05:40:50;;;;;;;32.88;17.27;;;;;;;6.75;82.57;102689.81;5027626;28;20117;-57
2022/03/15 05:43:19;;;;;;;37.58;17.23;;;;;;;6.73;82.72;102681.03;5030039;28;20475;-54
2022/03/15 05:45:44;;;;;;;33.70;16.65;;;;;;;6.78;82.58;102684.59;5026936;28;20021;-57
2022/03/15 05:48:10;;;;;;;35.55;16.98;;;;;;;6.78;82.50;102684.59;5006058;28;20395;-53
2022/03/15 05:50:35;;;;;;;34.10;15.88;;;;;;;6.86;82.11;102681.19;5044362;28;20396;-54
2022/03/15 05:53:04;;;;;;;38.30;17.65;;;;;;;6.75;82.37;102679.31;5045843;28;20471;-54
2022/03/15 05:55:33;;;;;;;30.73;14.68;;;;;;;6.77;82.21;102668.88;5046069;28;20021;-57
2022/03/15 05:57:59;;;;;;;31.00;16.77;;;;;;;6.79;82.25;102668.00;5047221;28;20017;-58
2022/03/15 06:00:24;;;;;;;39.15;18.33;;;;;;;6.80;82.06;102666.25;5045539;28;20036;-56
2022/03/15 06:02:50;;;;;;;28.60;15.40;;;;;;;6.76;82.08;102659.22;5012401;28;20025;-57
2022/03/15 06:05:15;;;;;;;27.63;15.02;;;;;;;6.71;82.30;102651.31;5024911;28;20443;-55
2022/03/15 06:07:46;;;;;;;33.22;16.27;;;;;;;6.70;82.36;102657.41;5025863;28;20014;-54
2022/03/15 06:10:11;;;;;;;32.47;16.75;;;;;;;6.63;82.70;102658.22;5026405;28;20021;-56
2022/03/15 06:12:36;;;;;;;31.67;15.27;;;;;;;6.69;82.22;102663.53;5026750;28;20044;-57
2022/03/15 06:15:02;;;;;;;31.00;17.02;;;;;;;6.69;82.45;102660.91;5034695;28;20029;-54
2022/03/15 06:17:27;;;;;;;38.22;15.95;;;;;;;6.70;82.38;102662.66;5046120;28;20025;-55
2022/03/15 06:19:52;;;;;;;32.63;16.63;;;;;;;6.79;81.98;102660.16;5045699;28;20471;-54
2022/03/15 06:22:18;;;;;;;30.90;17.33;;;;;;;6.77;81.94;102661.84;5046068;28;20033;-54
2022/03/15 06:24:43;;;;;;;34.38;18.45;;;;;;;6.74;81.67;102660.97;5046163;28;20074;-52
2022/03/15 06:27:08;;;;;;;37.85;16.27;;;;;;;6.74;81.82;102660.97;5045866;28;20025;-56
2022/03/15 06:29:34;;;;;;;40.40;17.55;;;;;;;6.70;81.84;102654.78;5046902;28;20070;-54
2022/03/15 06:32:00;;;;;;;36.20;17.73;;;;;;;6.79;81.61;102660.16;5045750;28;20112;-54
2022/03/15 06:34:25;;;;;;;30.30;15.20;;;;;;;6.80;81.58;102653.16;5033592;28;20478;-57
2022/03/15 06:36:51;;;;;;;34.92;16.23;;;;;;;6.83;81.24;102656.69;5026634;28;20442;-56
2022/03/15 06:39:16;;;;;;;25.50;14.93;;;;;;;6.80;81.19;102661.91;5024929;28;20037;-56
2022/03/15 06:41:43;;;;;;;28.98;15.52;;;;;;;6.85;80.87;102655.81;5026248;28;20029;-57
2022/03/15 06:44:09;;;;;;;30.50;14.68;;;;;;;6.82;81.08;102654.94;5025830;28;20022;-56
2022/03/15 06:46:35;;;;;;;26.67;16.63;;;;;;;6.88;81.00;102653.25;5026808;28;20018;-55
2022/03/15 06:49:01;;;;;;;33.75;16.80;;;;;;;6.93;80.86;102651.56;5025192;28;20025;-56
2022/03/15 06:51:26;;;;;;;41.08;16.52;;;;;;;6.93;80.83;102639.31;5024513;28;20108;-57
2022/03/15 06:53:52;;;;;;;31.60;14.45;;;;;;;6.95;80.70;102640.22;5023283;28;20057;-55
2022/03/15 06:56:17;;;;;;;30.95;17.02;;;;;;;7.00;80.49;102642.91;5010759;28;20392;-56
2022/03/15 06:58:46;;;;;;;31.58;17.15;;;;;;;6.98;80.80;102643.75;5004714;28;20388;-55
2022/03/15 07:01:11;;;;;;;27.67;14.98;;;;;;;7.03;80.76;102642.94;5005955;28;20014;-54
2022/03/15 07:03:36;;;;;;;34.53;18.33;;;;;;;7.04;80.52;102643.78;5005303;28;20118;-55
2022/03/15 07:06:02;;;;;;;28.65;14.55;;;;;;;7.10;80.49;102648.25;5006675;28;20032;-57
2022/03/15 07:08:28;;;;;;;33.13;18.30;;;;;;;7.07;80.65;102639.47;5004790;28;20040;-54
2022/03/15 07:10:53;;;;;;;32.13;15.93;;;;;;;7.08;80.69;102643.84;5006353;28;20036;-59
2022/03/15 07:13:19;;;;;;;38.22;19.38;;;;;;;7.04;81.09;102642.06;5009752;28;20053;-58
2022/03/15 07:15:45;;;;;;;33.60;17.02;;;;;;;7.07;81.07;102642.09;5023810;28;20052;-52
2022/03/15 07:18:10;;;;;;;34.28;17.73;;;;;;;7.07;80.79;102647.34;5005895;28;20061;-51
2022/03/15 07:20:36;;;;;;;32.08;18.17;;;;;;;7.12;80.61;102639.53;5025150;28;20018;-53
2022/03/15 07:23:01;;;;;;;33.22;16.77;;;;;;;7.15;80.54;102636.03;5025253;28;20037;-53
2022/03/15 07:25:27;;;;;;;34.30;17.38;;;;;;;7.22;80.36;102637.84;5025198;28;20063;-54
2022/03/15 07:27:52;;;;;;;26.50;16.65;;;;;;;7.27;80.14;102638.78;5024956;28;20498;-53
2022/03/15 07:30:21;;;;;;;41.53;15.02;;;;;;;7.46;79.17;102631.06;5024429;28;20734;-54
2022/03/15 07:32:47;;;;;;;33.10;17.23;;;;;;;7.53;78.45;102637.25;5024113;28;20108;-51
2022/03/15 07:35:12;;;;;;;47.38;19.88;;;;;;;7.50;78.40;102637.22;5018744;28;20128;-53
2022/03/15 07:37:38;;;;;;;33.78;16.55;;;;;;;7.54;78.39;102628.50;5015042;28;20014;-56
2022/03/15 07:40:04;;;;;;;29.08;17.35;;;;;;;7.55;78.08;102638.13;5005535;28;20092;-56
2022/03/15 07:42:30;;;;;;;35.45;18.15;;;;;;;7.64;78.32;102637.31;5015060;28;20033;-57
2022/03/15 07:44:55;;;;;;;34.03;17.75;;;;;;;7.52;77.86;102651.22;5010342;28;20031;-60
2022/03/15 07:47:20;;;;;;;35.38;17.10;;;;;;;7.64;77.39;102645.19;5015266;28;20278;-56
2022/03/15 07:49:50;;;;;;;33.13;17.27;;;;;;;7.69;77.27;102647.00;5015854;28;20386;-61
2022/03/15 07:52:16;;;;;;;32.05;16.17;;;;;;;7.71;76.98;102642.63;5015488;28;20042;-57
2022/03/15 07:54:42;;;;;;;36.45;17.30;;;;;;;7.75;77.04;102634.78;5014132;28;20022;-56
2022/03/15 07:57:09;;;;;;;33.03;15.38;;;;;;;7.87;76.71;102639.22;5012826;28;20494;-58
2022/03/15 07:59:34;;;;;;;38.10;16.17;;;;;;;7.92;76.62;102645.41;5010027;28;20042;-57
2022/03/15 08:02:00;;;;;;;32.20;16.70;;;;;;;7.94;76.76;102643.63;5017430;28;20409;-59
2022/03/15 08:04:25;;;;;;;37.22;17.65;;;;;;;7.92;76.61;102641.00;5022403;28;20030;-56
2022/03/15 08:06:50;;;;;;;34.60;17.63;;;;;;;8.03;75.98;102633.19;5018476;28;20065;-58
2022/03/15 08:09:15;;;;;;;32.50;16.67;;;;;;;8.08;75.94;102633.22;5017558;28;20080;-55
2022/03/15 08:11:41;;;;;;;31.40;18.02;;;;;;;8.09;75.91;102628.00;5014158;28;20148;-57
2022/03/15 08:14:08;;;;;;;28.55;14.57;;;;;;;8.29;75.42;102621.97;5026764;28;20041;-53
2022/03/15 08:16:34;;;;;;;28.63;15.68;;;;;;;8.33;75.22;102626.34;5028783;28;20041;-54
2022/03/15 08:18:59;;;;;;;34.78;17.55;;;;;;;8.32;74.96;102624.59;5024708;28;20502;-54
2022/03/15 08:21:26;;;;;;;33.40;17.20;;;;;;;8.44;74.16;102629.03;5007575;28;20037;-57
2022/03/15 08:23:51;;;;;;;31.92;17.48;;;;;;;8.57;73.26;102629.09;5009788;28;20804;-55
2022/03/15 08:26:17;;;;;;;32.42;15.70;;;;;;;8.66;73.53;102634.38;5024669;28;20025;-56
2022/03/15 08:28:45;;;;;;;25.23;15.23;;;;;;;8.75;72.91;102637.91;5017614;28;20030;-54
2022/03/15 08:31:10;;;;;;;25.02;13.75;;;;;;;8.78;72.49;102638.81;5012778;28;20014;-55
2022/03/15 08:33:35;;;;;;;31.17;16.35;;;;;;;8.74;72.53;102641.41;5021840;28;20029;-56
2022/03/15 08:36:01;;;;;;;34.63;16.42;;;;;;;8.74;72.70;102639.66;5020192;28;20342;-56
2022/03/15 08:38:28;;;;;;;30.58;14.80;;;;;;;8.82;72.45;102639.69;5012804;28;20033;-56
2022/03/15 08:40:54;;;;;;;30.98;15.50;;;;;;;8.99;72.36;102634.47;5011828;28;20441;-54
2022/03/15 08:43:19;;;;;;;25.55;14.98;;;;;;;9.00;72.12;102638.84;5017588;28;20014;-56
2022/03/15 08:45:45;;;;;;;30.02;14.93;;;;;;;9.01;72.16;102632.72;5023354;28;20376;-56
2022/03/15 08:48:10;;;;;;;26.02;14.63;;;;;;;9.06;71.73;102635.38;5021796;28;20024;-57
2022/03/15 08:50:36;;;;;;;34.05;16.75;;;;;;;8.98;72.14;102630.09;5019137;28;20034;-58
2022/03/15 08:53:02;;;;;;;25.10;14.73;;;;;;;8.95;72.39;102636.22;5007521;28;20022;-56
2022/03/15 08:55:28;;;;;;;33.40;16.42;;;;;;;8.91;72.57;102630.94;5018153;28;20045;-59
2022/03/15 08:57:54;;;;;;;28.48;14.52;;;;;;;8.87;72.34;102631.78;5019274;28;20028;-57
2022/03/15 09:00:20;;;;;;;25.35;15.40;;;;;;;8.80;72.46;102621.28;5019239;28;20384;-56
2022/03/15 09:02:45;;;;;;;25.77;15.98;;;;;;;8.69;72.59;102628.25;5019516;28;20021;-58
2022/03/15 09:05:15;;;;;;;26.55;14.35;;;;;;;8.73;72.87;102627.38;5018508;28;20051;-55
2022/03/15 09:07:41;;;;;;;22.67;15.05;;;;;;;8.64;73.42;102624.75;5021893;28;20040;-54
2022/03/15 09:10:06;;;;;;;29.80;15.93;;;;;;;8.58;73.58;102626.47;5027555;28;20021;-57
2022/03/15 09:12:31;;;;;;;29.77;16.35;;;;;;;8.40;74.55;102632.50;5006242;28;20061;-54
2022/03/15 09:14:57;;;;;;;34.05;16.92;;;;;;;8.36;74.99;102627.25;5023658;28;20160;-55
2022/03/15 09:17:22;;;;;;;28.15;16.67;;;;;;;8.39;75.02;102640.38;5019401;28;20408;-56
2022/03/15 09:19:50;;;;;;;22.65;15.80;;;;;;;8.31;75.31;102638.59;5017555;28;20484;-57
2022/03/15 09:22:15;;;;;;;29.48;15.93;;;;;;;8.29;75.29;102634.22;5018529;28;20029;-56
2022/03/15 09:24:41;;;;;;;32.17;16.88;;;;;;;8.38;75.02;102631.63;5015077;28;20052;-56
2022/03/15 09:27:07;;;;;;;28.00;15.93;;;;;;;8.50;74.38;102636.06;5016599;28;20656;-56
2022/03/15 09:29:32;;;;;;;26.95;13.98;;;;;;;8.66;73.93;102622.97;5015842;28;20495;-57
2022/03/15 09:31:58;;;;;;;32.53;14.88;;;;;;;8.72;74.12;102623.91;5015142;28;20021;-56
2022/03/15 09:34:25;;;;;;;26.17;12.52;;;;;;;8.72;73.55;102623.00;5008665;28;20034;-57
2022/03/15 09:36:50;;;;;;;23.35;12.90;;;;;;;8.72;72.48;102618.63;5016688;28;20010;-56
2022/03/15 09:39:16;;;;;;;33.85;13.43;;;;;;;8.75;72.41;102609.00;5017688;28;20032;-56
2022/03/15 09:41:41;;;;;;;28.95;12.68;;;;;;;8.96;72.16;102606.41;5016019;28;20033;-55
2022/03/15 09:44:09;;;;;;;25.15;12.98;;;;;;;9.10;72.21;102603.78;5007356;28;20038;-55
2022/03/15 09:46:38;;;;;;;20.00;11.02;;;;;;;9.26;71.52;102601.16;5006333;28;20033;-57
2022/03/15 09:49:05;;;;;;;27.08;12.43;;;;;;;9.25;72.01;102601.16;5006125;28;20458;-56
2022/03/15 09:51:32;;;;;;;21.60;13.05;;;;;;;9.30;71.36;102599.44;5012107;28;20158;-55
2022/03/15 09:53:59;;;;;;;25.40;12.25;;;;;;;9.23;71.10;102595.91;5004924;28;20038;-55
2022/03/15 09:56:24;;;;;;;25.27;12.93;;;;;;;9.12;71.22;102593.25;5006731;28;20030;-54
2022/03/15 09:58:50;;;;;;;21.25;12.77;;;;;;;9.17;70.97;102590.63;5015848;28;20032;-57
2022/03/15 10:01:17;;;;;;;26.67;12.57;;;;;;;9.18;71.22;102580.13;5023300;28;20013;-54
2022/03/15 10:03:43;;;;;;;17.60;12.35;;;;;;;9.06;71.17;102577.50;5015060;28;20044;-55
2022/03/15 10:06:09;;;;;;;24.35;11.68;;;;;;;9.02;70.99;102574.00;5024710;28;20025;-55
2022/03/15 10:08:35;;;;;;;20.00;12.52;;;;;;;8.98;71.30;102569.59;5025739;28;20041;-54
2022/03/15 10:11:00;;;;;;;18.98;12.50;;;;;;;8.94;71.79;102573.13;5026272;28;20599;-55
2022/03/15 10:13:25;;;;;;;21.50;11.90;;;;;;;8.97;71.67;102566.09;5025997;28;20483;-54
2022/03/15 10:15:56;;;;;;;28.02;14.27;;;;;;;8.94;71.93;102562.59;5026514;28;20045;-53
2022/03/15 10:18:21;;;;;;;22.50;12.52;;;;;;;9.07;71.66;102561.72;5025715;28;20028;-58
2022/03/15 10:20:48;;;;;;;21.33;11.88;;;;;;;9.24;71.58;102568.72;5017917;28;20025;-57
2022/03/15 10:23:16;;;;;;;26.35;12.73;;;;;;;9.34;70.87;102553.81;5014997;28;20054;-57
2022/03/15 10:25:45;;;;;;;26.25;12.23;;;;;;;9.30;70.40;102552.06;5018366;28;20083;-55
2022/03/15 10:28:10;;;;;;;;;;;;;;;9.30;70.82;102547.66;5015817;28;20022;-55
2022/03/15 10:30:37;;;;;;;18.67;10.38;;;;;;;9.32;70.54;102547.66;5004590;28;20007;-55
2022/03/15 10:33:03;;;;;;;19.50;11.02;;;;;;;9.46;70.45;102543.25;5017926;28;20095;-53
2022/03/15 10:35:31;;;;;;;20.13;11.05;;;;;;;9.65;70.19;102544.97;5018227;28;20056;-58
2022/03/15 10:37:57;;;;;;;18.80;10.23;;;;;;;9.83;69.02;102531.78;5016491;28;20034;-59
2022/03/15 10:40:32;;;;;;;17.83;9.63;;;;;;;10.08;68.46;102539.56;5014589;28;20318;-53
2022/03/15 10:43:23;;;;;;;15.05;9.70;;;;;;;10.28;67.84;102521.91;5009267;28;20526;-57
2022/03/15 10:45:55;;;;;;;16.65;9.52;;;;;;;10.35;67.35;102524.50;5009505;28;20040;-56
2022/03/15 10:48:23;;;;;;;15.00;8.93;;;;;;;10.44;66.66;102523.56;5026420;28;20039;-53
2022/03/15 10:50:56;;;;;;;17.48;8.23;;;;;;;10.56;66.19;102522.66;5024368;28;20048;-55
2022/03/15 10:53:25;;;;;;;18.58;8.88;;;;;;;10.70;65.75;102525.19;5002368;28;20034;-54
2022/03/15 10:55:51;;;;;;;17.45;8.60;;;;;;;10.95;65.60;102522.34;5005010;28;20068;-55
2022/03/15 10:58:22;;;;;;;13.63;8.38;;;;;;;11.10;64.69;102517.84;4986589;28;20384;-54
2022/03/15 11:00:53;;;;;;;18.08;7.80;;;;;;;10.95;64.13;102508.28;4986919;28;20025;-55
2022/03/15 11:03:23;;;;;;;11.95;7.80;;;;;;;10.94;63.42;102506.53;4983499;28;20029;-57
2022/03/15 11:05:50;;;;;;;16.70;8.10;;;;;;;11.21;63.72;102508.06;4999569;28;20467;-60
2022/03/15 11:08:17;;;;;;;14.55;9.02;;;;;;;11.17;62.99;102498.41;5002919;28;20060;-59
2022/03/15 11:10:46;;;;;;;18.95;8.48;;;;;;;11.51;63.77;102491.91;4986270;28;20435;-58
2022/03/15 11:13:12;;;;;;;16.58;8.60;;;;;;;11.85;63.21;102490.63;5003290;28;20046;-59